sensor_id;sensor_type;location;lat;lon;timestamp;temperature;humidity
80176;DHT22;69501;42.124;24.722;2023-05-10T00:02:09;15.00;58.60
80176;DHT22;69501;42.124;24.722;2023-05-10T00:04:34;14.90;58.80
80176;DHT22;69501;42.124;24.722;2023-05-10T00:07:00;14.90;58.60
80176;DHT22;69501;42.124;24.722;2023-05-10T00:09:26;14.90;59.00
80176;DHT22;69501;42.124;24.722;2023-05-10T00:11:52;14.90;57.90
80176;DHT22;69501;42.124;24.722;2023-05-10T00:14:17;14.90;58.00
80176;DHT22;69501;42.124;24.722;2023-05-10T00:16:43;14.80;57.50
80176;DHT22;69501;42.124;24.722;2023-05-10T00:19:09;14.80;57.70
80176;DHT22;69501;42.124;24.722;2023-05-10T00:21:34;14.70;57.50
80176;DHT22;69501;42.124;24.722;2023-05-10T00:24:00;14.70;57.90
80176;DHT22;69501;42.124;24.722;2023-05-10T00:26:26;14.70;58.50
80176;DHT22;69501;42.124;24.722;2023-05-10T00:28:51;14.60;58.50
80176;DHT22;69501;42.124;24.722;2023-05-10T00:31:17;14.60;58.60
80176;DHT22;69501;42.124;24.722;2023-05-10T00:33:43;14.60;59.50
80176;DHT22;69501;42.124;24.722;2023-05-10T00:36:08;14.60;59.60
80176;DHT22;69501;42.124;24.722;2023-05-10T00:38:34;14.60;59.40
80176;DHT22;69501;42.124;24.722;2023-05-10T00:41:00;14.70;60.40
80176;DHT22;69501;42.124;24.722;2023-05-10T00:43:25;14.70;60.40
80176;DHT22;69501;42.124;24.722;2023-05-10T00:45:52;14.80;60.80
80176;DHT22;69501;42.124;24.722;2023-05-10T00:48:18;14.80;59.90
80176;DHT22;69501;42.124;24.722;2023-05-10T00:50:44;14.90;60.10
80176;DHT22;69501;42.124;24.722;2023-05-10T00:53:10;14.80;59.40
80176;DHT22;69501;42.124;24.722;2023-05-10T00:55:36;14.80;59.90
80176;DHT22;69501;42.124;24.722;2023-05-10T00:58:02;14.80;59.70
80176;DHT22;69501;42.124;24.722;2023-05-10T01:00:28;14.90;59.60
80176;DHT22;69501;42.124;24.722;2023-05-10T01:02:55;14.90;60.00
80176;DHT22;69501;42.124;24.722;2023-05-10T01:05:20;14.80;59.90
80176;DHT22;69501;42.124;24.722;2023-05-10T01:07:46;14.80;60.20
80176;DHT22;69501;42.124;24.722;2023-05-10T01:10:12;14.80;60.40
80176;DHT22;69501;42.124;24.722;2023-05-10T01:12:40;14.80;60.60
80176;DHT22;69501;42.124;24.722;2023-05-10T01:15:09;14.80;60.30
80176;DHT22;69501;42.124;24.722;2023-05-10T01:17:38;14.90;60.70
80176;DHT22;69501;42.124;24.722;2023-05-10T01:20:06;14.90;60.40
80176;DHT22;69501;42.124;24.722;2023-05-10T01:22:46;14.90;59.90
80176;DHT22;69501;42.124;24.722;2023-05-10T01:34:12;14.90;60.30
80176;DHT22;69501;42.124;24.722;2023-05-10T01:37:02;14.90;60.60
80176;DHT22;69501;42.124;24.722;2023-05-10T01:39:55;14.90;60.20
80176;DHT22;69501;42.124;24.722;2023-05-10T01:42:26;14.90;60.10
80176;DHT22;69501;42.124;24.722;2023-05-10T01:47:47;14.90;60.70
80176;DHT22;69501;42.124;24.722;2023-05-10T01:50:15;14.90;60.80
80176;DHT22;69501;42.124;24.722;2023-05-10T01:52:44;14.90;61.40
80176;DHT22;69501;42.124;24.722;2023-05-10T01:55:15;14.90;60.00
80176;DHT22;69501;42.124;24.722;2023-05-10T01:57:44;14.90;60.00
80176;DHT22;69501;42.124;24.722;2023-05-10T02:00:12;14.90;60.10
80176;DHT22;69501;42.124;24.722;2023-05-10T02:02:40;14.90;60.00
80176;DHT22;69501;42.124;24.722;2023-05-10T02:05:08;14.80;59.90
80176;DHT22;69501;42.124;24.722;2023-05-10T02:07:36;14.70;60.10
80176;DHT22;69501;42.124;24.722;2023-05-10T02:10:04;14.70;61.50
80176;DHT22;69501;42.124;24.722;2023-05-10T02:12:32;14.60;61.10
80176;DHT22;69501;42.124;24.722;2023-05-10T02:15:02;14.60;61.50
80176;DHT22;69501;42.124;24.722;2023-05-10T02:17:31;14.60;61.60
80176;DHT22;69501;42.124;24.722;2023-05-10T02:19:59;14.60;61.00
80176;DHT22;69501;42.124;24.722;2023-05-10T02:22:26;14.70;61.00
80176;DHT22;69501;42.124;24.722;2023-05-10T02:24:54;14.70;60.70
80176;DHT22;69501;42.124;24.722;2023-05-10T02:27:20;14.70;62.50
80176;DHT22;69501;42.124;24.722;2023-05-10T02:29:50;14.60;60.60
80176;DHT22;69501;42.124;24.722;2023-05-10T02:32:17;14.60;61.20
80176;DHT22;69501;42.124;24.722;2023-05-10T02:34:44;14.60;60.90
80176;DHT22;69501;42.124;24.722;2023-05-10T02:37:13;14.50;61.40
80176;DHT22;69501;42.124;24.722;2023-05-10T02:39:40;14.60;61.60
80176;DHT22;69501;42.124;24.722;2023-05-10T02:42:14;14.60;60.80
80176;DHT22;69501;42.124;24.722;2023-05-10T02:44:42;14.60;61.30
80176;DHT22;69501;42.124;24.722;2023-05-10T02:47:08;14.60;61.40
80176;DHT22;69501;42.124;24.722;2023-05-10T02:49:34;14.60;61.50
80176;DHT22;69501;42.124;24.722;2023-05-10T02:52:01;14.60;61.50
80176;DHT22;69501;42.124;24.722;2023-05-10T02:54:33;14.70;61.30
80176;DHT22;69501;42.124;24.722;2023-05-10T02:57:04;14.60;61.30
80176;DHT22;69501;42.124;24.722;2023-05-10T02:59:30;14.60;60.80
80176;DHT22;69501;42.124;24.722;2023-05-10T03:01:59;14.60;60.50
80176;DHT22;69501;42.124;24.722;2023-05-10T03:04:25;14.60;60.70
80176;DHT22;69501;42.124;24.722;2023-05-10T03:06:51;14.60;61.30
80176;DHT22;69501;42.124;24.722;2023-05-10T03:09:18;14.60;61.30
80176;DHT22;69501;42.124;24.722;2023-05-10T03:11:59;14.70;61.40
80176;DHT22;69501;42.124;24.722;2023-05-10T03:14:48;14.60;60.70
80176;DHT22;69501;42.124;24.722;2023-05-10T03:17:39;14.60;61.20
80176;DHT22;69501;42.124;24.722;2023-05-10T03:20:11;14.60;61.00
80176;DHT22;69501;42.124;24.722;2023-05-10T03:22:40;14.60;61.10
80176;DHT22;69501;42.124;24.722;2023-05-10T03:25:11;14.60;61.30
80176;DHT22;69501;42.124;24.722;2023-05-10T03:27:40;14.60;61.20
80176;DHT22;69501;42.124;24.722;2023-05-10T03:30:08;14.70;61.30
80176;DHT22;69501;42.124;24.722;2023-05-10T03:32:35;14.70;61.00
80176;DHT22;69501;42.124;24.722;2023-05-10T03:35:07;14.70;60.90
80176;DHT22;69501;42.124;24.722;2023-05-10T03:37:32;14.70;61.10
80176;DHT22;69501;42.124;24.722;2023-05-10T03:39:58;14.70;60.90
80176;DHT22;69501;42.124;24.722;2023-05-10T03:42:24;14.70;60.70
80176;DHT22;69501;42.124;24.722;2023-05-10T03:44:49;14.80;61.10
80176;DHT22;69501;42.124;24.722;2023-05-10T03:47:15;14.80;60.70
80176;DHT22;69501;42.124;24.722;2023-05-10T03:49:41;14.80;61.20
80176;DHT22;69501;42.124;24.722;2023-05-10T03:52:06;14.80;61.70
80176;DHT22;69501;42.124;24.722;2023-05-10T03:54:32;14.80;60.90
80176;DHT22;69501;42.124;24.722;2023-05-10T03:56:58;14.70;61.00
80176;DHT22;69501;42.124;24.722;2023-05-10T03:59:23;14.80;61.60
80176;DHT22;69501;42.124;24.722;2023-05-10T04:01:49;14.80;61.40
80176;DHT22;69501;42.124;24.722;2023-05-10T04:04:15;14.70;61.00
80176;DHT22;69501;42.124;24.722;2023-05-10T04:06:40;14.70;61.20
80176;DHT22;69501;42.124;24.722;2023-05-10T04:09:06;14.70;61.00
80176;DHT22;69501;42.124;24.722;2023-05-10T04:11:31;14.60;60.80
80176;DHT22;69501;42.124;24.722;2023-05-10T04:13:57;14.60;61.60
80176;DHT22;69501;42.124;24.722;2023-05-10T04:16:23;14.70;61.80
80176;DHT22;69501;42.124;24.722;2023-05-10T04:18:48;14.70;61.60
80176;DHT22;69501;42.124;24.722;2023-05-10T04:21:15;14.70;60.80
80176;DHT22;69501;42.124;24.722;2023-05-10T04:23:40;14.70;60.40
80176;DHT22;69501;42.124;24.722;2023-05-10T04:26:06;14.70;60.30
80176;DHT22;69501;42.124;24.722;2023-05-10T04:28:32;14.70;60.40
80176;DHT22;69501;42.124;24.722;2023-05-10T04:31:05;14.70;60.20
80176;DHT22;69501;42.124;24.722;2023-05-10T04:33:31;14.70;60.10
80176;DHT22;69501;42.124;24.722;2023-05-10T04:35:57;14.70;60.20
80176;DHT22;69501;42.124;24.722;2023-05-10T04:38:23;14.70;60.40
80176;DHT22;69501;42.124;24.722;2023-05-10T04:40:49;14.70;60.50
80176;DHT22;69501;42.124;24.722;2023-05-10T04:43:14;14.80;62.10
80176;DHT22;69501;42.124;24.722;2023-05-10T04:45:40;15.00;66.70
80176;DHT22;69501;42.124;24.722;2023-05-10T04:48:06;15.30;65.10
80176;DHT22;69501;42.124;24.722;2023-05-10T04:50:32;15.50;63.90
80176;DHT22;69501;42.124;24.722;2023-05-10T04:52:58;15.70;62.40
80176;DHT22;69501;42.124;24.722;2023-05-10T04:55:24;15.90;61.60
80176;DHT22;69501;42.124;24.722;2023-05-10T04:57:50;16.00;59.40
80176;DHT22;69501;42.124;24.722;2023-05-10T05:00:16;16.10;59.60
80176;DHT22;69501;42.124;24.722;2023-05-10T05:02:45;16.20;59.40
80176;DHT22;69501;42.124;24.722;2023-05-10T05:05:11;16.40;59.10
80176;DHT22;69501;42.124;24.722;2023-05-10T05:07:37;16.70;59.10
80176;DHT22;69501;42.124;24.722;2023-05-10T05:10:05;17.00;58.30
80176;DHT22;69501;42.124;24.722;2023-05-10T05:12:31;17.30;57.10
80176;DHT22;69501;42.124;24.722;2023-05-10T05:14:57;17.60;56.10
80176;DHT22;69501;42.124;24.722;2023-05-10T05:17:22;17.80;55.50
80176;DHT22;69501;42.124;24.722;2023-05-10T05:19:48;18.10;54.30
80176;DHT22;69501;42.124;24.722;2023-05-10T05:22:13;18.30;54.00
80176;DHT22;69501;42.124;24.722;2023-05-10T05:24:39;18.40;52.70
80176;DHT22;69501;42.124;24.722;2023-05-10T05:27:05;18.60;51.90
80176;DHT22;69501;42.124;24.722;2023-05-10T05:29:31;18.70;51.40
80176;DHT22;69501;42.124;24.722;2023-05-10T05:31:57;18.80;50.90
80176;DHT22;69501;42.124;24.722;2023-05-10T05:34:22;18.90;50.60
80176;DHT22;69501;42.124;24.722;2023-05-10T05:36:49;19.00;50.30
80176;DHT22;69501;42.124;24.722;2023-05-10T05:39:15;19.00;49.90
80176;DHT22;69501;42.124;24.722;2023-05-10T05:41:41;19.10;49.70
80176;DHT22;69501;42.124;24.722;2023-05-10T05:44:06;19.20;49.70
80176;DHT22;69501;42.124;24.722;2023-05-10T05:46:32;19.20;49.10
80176;DHT22;69501;42.124;24.722;2023-05-10T05:48:57;19.20;49.00
80176;DHT22;69501;42.124;24.722;2023-05-10T05:51:23;19.20;49.00
80176;DHT22;69501;42.124;24.722;2023-05-10T05:53:49;19.20;49.00
80176;DHT22;69501;42.124;24.722;2023-05-10T05:56:14;19.30;49.10
80176;DHT22;69501;42.124;24.722;2023-05-10T05:58:40;19.40;48.80
80176;DHT22;69501;42.124;24.722;2023-05-10T06:01:06;19.40;49.70
80176;DHT22;69501;42.124;24.722;2023-05-10T06:03:31;19.40;48.40
80176;DHT22;69501;42.124;24.722;2023-05-10T06:05:58;19.50;48.40
80176;DHT22;69501;42.124;24.722;2023-05-10T06:08:23;19.60;48.00
80176;DHT22;69501;42.124;24.722;2023-05-10T06:10:49;19.60;46.10
80176;DHT22;69501;42.124;24.722;2023-05-10T06:13:15;19.40;47.40
80176;DHT22;69501;42.124;24.722;2023-05-10T06:15:40;19.40;47.60
80176;DHT22;69501;42.124;24.722;2023-05-10T06:18:06;19.30;47.70
80176;DHT22;69501;42.124;24.722;2023-05-10T06:20:32;19.30;48.30
80176;DHT22;69501;42.124;24.722;2023-05-10T06:22:58;19.30;47.90
80176;DHT22;69501;42.124;24.722;2023-05-10T06:25:24;19.40;45.90
80176;DHT22;69501;42.124;24.722;2023-05-10T06:27:49;19.10;46.00
80176;DHT22;69501;42.124;24.722;2023-05-10T06:30:16;18.90;46.30
80176;DHT22;69501;42.124;24.722;2023-05-10T06:32:41;18.70;47.20
80176;DHT22;69501;42.124;24.722;2023-05-10T06:35:09;18.50;47.10
80176;DHT22;69501;42.124;24.722;2023-05-10T06:37:35;18.40;47.60
80176;DHT22;69501;42.124;24.722;2023-05-10T06:40:00;18.20;47.60
80176;DHT22;69501;42.124;24.722;2023-05-10T06:42:27;18.00;47.40
80176;DHT22;69501;42.124;24.722;2023-05-10T06:44:52;17.70;48.10
80176;DHT22;69501;42.124;24.722;2023-05-10T06:47:18;17.40;48.60
80176;DHT22;69501;42.124;24.722;2023-05-10T06:49:44;17.30;49.10
80176;DHT22;69501;42.124;24.722;2023-05-10T06:52:10;17.20;49.80
80176;DHT22;69501;42.124;24.722;2023-05-10T06:54:35;17.10;50.40
80176;DHT22;69501;42.124;24.722;2023-05-10T06:57:01;17.00;50.50
80176;DHT22;69501;42.124;24.722;2023-05-10T06:59:28;16.90;50.90
80176;DHT22;69501;42.124;24.722;2023-05-10T07:01:54;16.90;51.00
80176;DHT22;69501;42.124;24.722;2023-05-10T07:04:20;16.90;51.20
80176;DHT22;69501;42.124;24.722;2023-05-10T07:06:45;17.00;50.80
80176;DHT22;69501;42.124;24.722;2023-05-10T07:09:11;17.00;50.40
80176;DHT22;69501;42.124;24.722;2023-05-10T07:11:38;17.00;50.20
80176;DHT22;69501;42.124;24.722;2023-05-10T07:14:04;17.00;50.30
80176;DHT22;69501;42.124;24.722;2023-05-10T07:16:30;17.00;50.40
80176;DHT22;69501;42.124;24.722;2023-05-10T07:18:56;17.00;51.50
80176;DHT22;69501;42.124;24.722;2023-05-10T07:21:22;17.00;51.80
80176;DHT22;69501;42.124;24.722;2023-05-10T07:23:49;17.00;52.10
80176;DHT22;69501;42.124;24.722;2023-05-10T07:26:15;17.10;51.60
80176;DHT22;69501;42.124;24.722;2023-05-10T07:28:41;17.10;51.10
80176;DHT22;69501;42.124;24.722;2023-05-10T07:31:07;17.10;50.00
80176;DHT22;69501;42.124;24.722;2023-05-10T07:33:33;17.00;50.50
80176;DHT22;69501;42.124;24.722;2023-05-10T07:35:58;17.00;50.00
80176;DHT22;69501;42.124;24.722;2023-05-10T07:38:24;16.90;50.20
80176;DHT22;69501;42.124;24.722;2023-05-10T07:40:50;16.90;51.10
80176;DHT22;69501;42.124;24.722;2023-05-10T07:43:15;17.00;51.20
80176;DHT22;69501;42.124;24.722;2023-05-10T07:45:41;17.10;49.50
80176;DHT22;69501;42.124;24.722;2023-05-10T07:48:07;17.10;49.10
80176;DHT22;69501;42.124;24.722;2023-05-10T07:50:32;17.20;48.50
80176;DHT22;69501;42.124;24.722;2023-05-10T07:52:58;17.10;48.10
80176;DHT22;69501;42.124;24.722;2023-05-10T07:55:24;17.00;49.00
80176;DHT22;69501;42.124;24.722;2023-05-10T07:57:50;16.90;49.70
80176;DHT22;69501;42.124;24.722;2023-05-10T08:00:18;16.90;50.70
80176;DHT22;69501;42.124;24.722;2023-05-10T08:02:44;17.00;50.40
80176;DHT22;69501;42.124;24.722;2023-05-10T08:05:09;17.10;51.30
80176;DHT22;69501;42.124;24.722;2023-05-10T08:07:35;17.20;49.90
80176;DHT22;69501;42.124;24.722;2023-05-10T08:10:02;17.40;49.40
80176;DHT22;69501;42.124;24.722;2023-05-10T08:12:28;17.50;49.10
80176;DHT22;69501;42.124;24.722;2023-05-10T08:14:53;17.50;49.20
80176;DHT22;69501;42.124;24.722;2023-05-10T08:17:19;17.70;48.90
80176;DHT22;69501;42.124;24.722;2023-05-10T08:19:45;17.80;48.40
80176;DHT22;69501;42.124;24.722;2023-05-10T08:22:10;17.80;47.20
80176;DHT22;69501;42.124;24.722;2023-05-10T08:24:36;17.90;48.00
80176;DHT22;69501;42.124;24.722;2023-05-10T08:27:05;17.90;47.20
80176;DHT22;69501;42.124;24.722;2023-05-10T08:29:30;18.10;45.90
80176;DHT22;69501;42.124;24.722;2023-05-10T08:31:56;18.10;45.00
80176;DHT22;69501;42.124;24.722;2023-05-10T08:34:22;18.10;44.80
80176;DHT22;69501;42.124;24.722;2023-05-10T08:36:48;18.10;45.80
80176;DHT22;69501;42.124;24.722;2023-05-10T08:39:13;18.20;46.30
80176;DHT22;69501;42.124;24.722;2023-05-10T08:41:39;18.30;45.70
80176;DHT22;69501;42.124;24.722;2023-05-10T08:44:08;18.30;46.20
80176;DHT22;69501;42.124;24.722;2023-05-10T08:46:34;18.40;45.70
80176;DHT22;69501;42.124;24.722;2023-05-10T08:49:04;18.50;45.50
80176;DHT22;69501;42.124;24.722;2023-05-10T08:51:35;18.50;45.50
80176;DHT22;69501;42.124;24.722;2023-05-10T08:54:04;18.70;44.90
80176;DHT22;69501;42.124;24.722;2023-05-10T08:56:31;18.70;44.40
80176;DHT22;69501;42.124;24.722;2023-05-10T08:58:57;18.70;45.00
80176;DHT22;69501;42.124;24.722;2023-05-10T09:01:23;18.70;44.70
80176;DHT22;69501;42.124;24.722;2023-05-10T09:03:50;18.80;44.70
80176;DHT22;69501;42.124;24.722;2023-05-10T09:06:17;18.80;45.00
80176;DHT22;69501;42.124;24.722;2023-05-10T09:08:43;18.90;44.90
80176;DHT22;69501;42.124;24.722;2023-05-10T09:11:11;18.80;45.10
80176;DHT22;69501;42.124;24.722;2023-05-10T09:13:36;18.90;44.70
80176;DHT22;69501;42.124;24.722;2023-05-10T09:16:03;18.80;43.80
80176;DHT22;69501;42.124;24.722;2023-05-10T09:18:29;18.70;44.10
80176;DHT22;69501;42.124;24.722;2023-05-10T09:20:55;18.70;43.70
80176;DHT22;69501;42.124;24.722;2023-05-10T09:23:20;18.60;44.50
80176;DHT22;69501;42.124;24.722;2023-05-10T09:25:46;18.70;44.80
80176;DHT22;69501;42.124;24.722;2023-05-10T09:28:12;18.60;44.70
80176;DHT22;69501;42.124;24.722;2023-05-10T09:30:38;18.60;45.00
80176;DHT22;69501;42.124;24.722;2023-05-10T09:33:04;18.60;47.00
80176;DHT22;69501;42.124;24.722;2023-05-10T09:35:31;18.60;45.80
80176;DHT22;69501;42.124;24.722;2023-05-10T09:37:59;18.70;44.40
80176;DHT22;69501;42.124;24.722;2023-05-10T09:40:27;18.80;44.30
80176;DHT22;69501;42.124;24.722;2023-05-10T09:42:55;18.80;44.30
80176;DHT22;69501;42.124;24.722;2023-05-10T09:45:22;18.90;44.60
80176;DHT22;69501;42.124;24.722;2023-05-10T09:47:48;18.90;43.60
80176;DHT22;69501;42.124;24.722;2023-05-10T09:50:14;19.00;44.00
80176;DHT22;69501;42.124;24.722;2023-05-10T09:52:54;19.10;43.80
80176;DHT22;69501;42.124;24.722;2023-05-10T09:58:06;19.20;43.80
80176;DHT22;69501;42.124;24.722;2023-05-10T10:00:40;19.30;42.40
80176;DHT22;69501;42.124;24.722;2023-05-10T10:03:06;19.40;42.30
80176;DHT22;69501;42.124;24.722;2023-05-10T10:05:36;19.40;41.30
80176;DHT22;69501;42.124;24.722;2023-05-10T10:08:05;19.30;41.90
80176;DHT22;69501;42.124;24.722;2023-05-10T10:10:32;19.30;41.70
80176;DHT22;69501;42.124;24.722;2023-05-10T10:12:59;19.20;42.60
80176;DHT22;69501;42.124;24.722;2023-05-10T10:15:25;19.30;42.50
80176;DHT22;69501;42.124;24.722;2023-05-10T10:17:52;19.50;42.30
80176;DHT22;69501;42.124;24.722;2023-05-10T10:20:19;19.60;42.50
80176;DHT22;69501;42.124;24.722;2023-05-10T10:22:46;19.70;41.30
80176;DHT22;69501;42.124;24.722;2023-05-10T10:25:14;19.80;41.20
80176;DHT22;69501;42.124;24.722;2023-05-10T10:30:26;19.90;41.30
80176;DHT22;69501;42.124;24.722;2023-05-10T10:35:35;19.90;41.70
80176;DHT22;69501;42.124;24.722;2023-05-10T10:38:02;20.00;41.00
80176;DHT22;69501;42.124;24.722;2023-05-10T10:40:29;20.10;41.30
80176;DHT22;69501;42.124;24.722;2023-05-10T10:42:56;20.20;41.20
80176;DHT22;69501;42.124;24.722;2023-05-10T10:45:25;20.20;40.60
80176;DHT22;69501;42.124;24.722;2023-05-10T10:48:22;20.20;39.60
80176;DHT22;69501;42.124;24.722;2023-05-10T10:50:56;20.20;39.00
80176;DHT22;69501;42.124;24.722;2023-05-10T10:53:23;20.20;39.40
80176;DHT22;69501;42.124;24.722;2023-05-10T10:56:09;20.20;39.10
80176;DHT22;69501;42.124;24.722;2023-05-10T10:58:36;20.40;38.10
80176;DHT22;69501;42.124;24.722;2023-05-10T11:01:16;20.50;37.80
80176;DHT22;69501;42.124;24.722;2023-05-10T11:06:40;20.60;36.10
80176;DHT22;69501;42.124;24.722;2023-05-10T11:09:08;20.60;37.70
80176;DHT22;69501;42.124;24.722;2023-05-10T11:11:35;20.50;37.70
80176;DHT22;69501;42.124;24.722;2023-05-10T11:14:06;20.60;37.50
80176;DHT22;69501;42.124;24.722;2023-05-10T11:16:44;20.70;36.70
80176;DHT22;69501;42.124;24.722;2023-05-10T11:19:11;20.90;36.10
80176;DHT22;69501;42.124;24.722;2023-05-10T11:24:30;21.20;36.10
80176;DHT22;69501;42.124;24.722;2023-05-10T11:26:56;21.40;35.60
80176;DHT22;69501;42.124;24.722;2023-05-10T11:29:22;21.60;36.20
80176;DHT22;69501;42.124;24.722;2023-05-10T11:31:49;21.70;35.20
80176;DHT22;69501;42.124;24.722;2023-05-10T11:34:31;21.80;34.90
80176;DHT22;69501;42.124;24.722;2023-05-10T11:36:59;22.10;35.10
80176;DHT22;69501;42.124;24.722;2023-05-10T11:39:29;22.20;34.30
80176;DHT22;69501;42.124;24.722;2023-05-10T11:41:56;22.40;34.20
80176;DHT22;69501;42.124;24.722;2023-05-10T11:44:23;22.60;33.40
80176;DHT22;69501;42.124;24.722;2023-05-10T11:46:49;22.60;33.00
80176;DHT22;69501;42.124;24.722;2023-05-10T11:49:15;22.60;31.90
80176;DHT22;69501;42.124;24.722;2023-05-10T11:51:40;22.50;31.80
80176;DHT22;69501;42.124;24.722;2023-05-10T11:54:09;22.40;32.20
80176;DHT22;69501;42.124;24.722;2023-05-10T11:56:37;22.30;32.80
80176;DHT22;69501;42.124;24.722;2023-05-10T11:59:03;22.20;32.80
80176;DHT22;69501;42.124;24.722;2023-05-10T12:01:30;22.10;32.40
80176;DHT22;69501;42.124;24.722;2023-05-10T12:03:57;22.00;32.50
80176;DHT22;69501;42.124;24.722;2023-05-10T12:06:27;21.90;32.00
80176;DHT22;69501;42.124;24.722;2023-05-10T12:08:54;21.80;32.70
80176;DHT22;69501;42.124;24.722;2023-05-10T12:11:23;21.80;32.20
80176;DHT22;69501;42.124;24.722;2023-05-10T12:13:50;21.70;32.20
80176;DHT22;69501;42.124;24.722;2023-05-10T12:18:43;21.80;32.10
80176;DHT22;69501;42.124;24.722;2023-05-10T12:21:12;21.80;31.50
80176;DHT22;69501;42.124;24.722;2023-05-10T12:23:39;21.70;31.70
80176;DHT22;69501;42.124;24.722;2023-05-10T12:26:05;21.60;31.80
80176;DHT22;69501;42.124;24.722;2023-05-10T12:28:32;21.60;32.40
80176;DHT22;69501;42.124;24.722;2023-05-10T12:30:59;21.60;32.20
80176;DHT22;69501;42.124;24.722;2023-05-10T12:33:25;21.60;32.10
80176;DHT22;69501;42.124;24.722;2023-05-10T12:35:54;21.60;32.60
80176;DHT22;69501;42.124;24.722;2023-05-10T12:38:29;21.60;33.30
80176;DHT22;69501;42.124;24.722;2023-05-10T12:41:00;21.60;32.60
80176;DHT22;69501;42.124;24.722;2023-05-10T12:43:26;21.60;31.90
80176;DHT22;69501;42.124;24.722;2023-05-10T12:45:51;21.70;32.00
80176;DHT22;69501;42.124;24.722;2023-05-10T12:48:17;22.00;32.20
80176;DHT22;69501;42.124;24.722;2023-05-10T12:50:43;22.10;32.60
80176;DHT22;69501;42.124;24.722;2023-05-10T12:53:09;22.10;32.30
80176;DHT22;69501;42.124;24.722;2023-05-10T12:55:35;22.10;32.20
80176;DHT22;69501;42.124;24.722;2023-05-10T12:58:00;22.00;32.80
80176;DHT22;69501;42.124;24.722;2023-05-10T13:00:26;22.10;32.30
80176;DHT22;69501;42.124;24.722;2023-05-10T13:02:52;21.90;32.20
80176;DHT22;69501;42.124;24.722;2023-05-10T13:05:18;21.70;32.90
80176;DHT22;69501;42.124;24.722;2023-05-10T13:07:44;21.60;33.30
80176;DHT22;69501;42.124;24.722;2023-05-10T13:10:10;21.50;32.90
80176;DHT22;69501;42.124;24.722;2023-05-10T13:12:36;21.40;33.80
80176;DHT22;69501;42.124;24.722;2023-05-10T13:15:02;21.30;34.20
80176;DHT22;69501;42.124;24.722;2023-05-10T13:17:28;21.30;33.20
80176;DHT22;69501;42.124;24.722;2023-05-10T13:19:54;21.30;33.10
80176;DHT22;69501;42.124;24.722;2023-05-10T13:22:20;21.50;33.60
80176;DHT22;69501;42.124;24.722;2023-05-10T13:24:46;21.60;32.80
80176;DHT22;69501;42.124;24.722;2023-05-10T13:27:11;21.60;33.00
80176;DHT22;69501;42.124;24.722;2023-05-10T13:29:37;21.50;33.00
80176;DHT22;69501;42.124;24.722;2023-05-10T13:32:03;21.30;33.20
80176;DHT22;69501;42.124;24.722;2023-05-10T13:34:28;21.10;33.60
80176;DHT22;69501;42.124;24.722;2023-05-10T13:36:54;20.90;34.10
80176;DHT22;69501;42.124;24.722;2023-05-10T13:39:22;20.70;34.90
80176;DHT22;69501;42.124;24.722;2023-05-10T13:41:48;20.70;34.10
80176;DHT22;69501;42.124;24.722;2023-05-10T13:44:14;20.60;33.70
80176;DHT22;69501;42.124;24.722;2023-05-10T13:46:40;20.50;34.00
80176;DHT22;69501;42.124;24.722;2023-05-10T13:49:08;20.50;34.30
80176;DHT22;69501;42.124;24.722;2023-05-10T13:51:34;20.50;34.00
80176;DHT22;69501;42.124;24.722;2023-05-10T13:54:00;20.40;34.70
80176;DHT22;69501;42.124;24.722;2023-05-10T13:56:38;20.40;35.70
80176;DHT22;69501;42.124;24.722;2023-05-10T13:59:03;20.40;35.20
80176;DHT22;69501;42.124;24.722;2023-05-10T14:01:29;20.50;34.90
80176;DHT22;69501;42.124;24.722;2023-05-10T14:03:55;20.50;34.80
80176;DHT22;69501;42.124;24.722;2023-05-10T14:06:20;20.40;35.30
80176;DHT22;69501;42.124;24.722;2023-05-10T14:08:47;20.40;35.30
80176;DHT22;69501;42.124;24.722;2023-05-10T14:11:13;20.40;35.70
80176;DHT22;69501;42.124;24.722;2023-05-10T14:13:39;20.40;35.70
80176;DHT22;69501;42.124;24.722;2023-05-10T14:16:05;20.50;35.00
80176;DHT22;69501;42.124;24.722;2023-05-10T14:18:31;20.50;35.50
80176;DHT22;69501;42.124;24.722;2023-05-10T14:20:56;20.60;36.20
80176;DHT22;69501;42.124;24.722;2023-05-10T14:23:22;20.70;35.00
80176;DHT22;69501;42.124;24.722;2023-05-10T14:25:54;20.80;35.00
80176;DHT22;69501;42.124;24.722;2023-05-10T14:28:20;21.00;34.50
80176;DHT22;69501;42.124;24.722;2023-05-10T14:30:46;21.30;33.90
80176;DHT22;69501;42.124;24.722;2023-05-10T14:33:12;21.50;32.90
80176;DHT22;69501;42.124;24.722;2023-05-10T14:35:38;21.60;32.60
80176;DHT22;69501;42.124;24.722;2023-05-10T14:38:04;21.60;33.10
80176;DHT22;69501;42.124;24.722;2023-05-10T14:40:30;21.60;32.50
80176;DHT22;69501;42.124;24.722;2023-05-10T14:42:56;21.60;32.80
80176;DHT22;69501;42.124;24.722;2023-05-10T14:45:22;21.70;33.00
80176;DHT22;69501;42.124;24.722;2023-05-10T14:47:48;21.60;32.90
80176;DHT22;69501;42.124;24.722;2023-05-10T14:50:14;21.40;33.00
80176;DHT22;69501;42.124;24.722;2023-05-10T14:56:01;21.00;33.40
80176;DHT22;69501;42.124;24.722;2023-05-10T14:58:27;20.70;34.10
80176;DHT22;69501;42.124;24.722;2023-05-10T15:00:52;20.50;34.40
80176;DHT22;69501;42.124;24.722;2023-05-10T15:03:18;20.30;35.80
80176;DHT22;69501;42.124;24.722;2023-05-10T15:05:44;20.20;35.60
80176;DHT22;69501;42.124;24.722;2023-05-10T15:08:10;20.10;35.60
80176;DHT22;69501;42.124;24.722;2023-05-10T15:10:35;20.00;36.10
80176;DHT22;69501;42.124;24.722;2023-05-10T15:13:03;19.90;36.70
80176;DHT22;69501;42.124;24.722;2023-05-10T15:15:29;19.80;37.30
80176;DHT22;69501;42.124;24.722;2023-05-10T15:17:55;19.70;37.60
80176;DHT22;69501;42.124;24.722;2023-05-10T15:20:21;19.70;37.30
80176;DHT22;69501;42.124;24.722;2023-05-10T15:22:46;19.50;37.20
80176;DHT22;69501;42.124;24.722;2023-05-10T15:25:13;19.50;37.70
80176;DHT22;69501;42.124;24.722;2023-05-10T15:27:39;19.40;37.80
80176;DHT22;69501;42.124;24.722;2023-05-10T15:30:05;19.40;38.10
80176;DHT22;69501;42.124;24.722;2023-05-10T15:32:41;19.30;38.00
80176;DHT22;69501;42.124;24.722;2023-05-10T15:35:20;19.20;38.40
80176;DHT22;69501;42.124;24.722;2023-05-10T15:37:47;19.10;38.60
80176;DHT22;69501;42.124;24.722;2023-05-10T15:40:13;19.00;38.90
80176;DHT22;69501;42.124;24.722;2023-05-10T15:42:38;18.90;39.00
80176;DHT22;69501;42.124;24.722;2023-05-10T15:45:04;18.90;39.20
80176;DHT22;69501;42.124;24.722;2023-05-10T15:47:30;18.90;38.40